Time;durP1;ratioP1;P1;durP2;ratioP2;P2;SDS_P1;SDS_P2;PMS_P1;PMS_P2;Temp;Humidity;BMP_temperature;BMP_pressure;BME280_temperature;BME280_humidity;BME280_pressure;Samples;Min_cycle;Max_cycle;Signal;HPM_P1;HPM_P2
2022/01/31 00:00:24;;;;;;;188.93;102.07;;;;;;;;;;4971303;28;20408;-79
2022/01/31 00:02:50;;;;;;;184.20;102.10;;;;;;;;;;4956821;28;20429;-79
2022/01/31 00:05:17;;;;;;;168.77;93.10;;;;;;;;;;4950590;28;20429;-79
2022/01/31 00:07:43;;;;;;;193.10;102.40;;;;;;;;;;4952312;28;20796;-79
2022/01/31 00:10:13;;;;;;;192.00;102.53;;;;;;;;;;4957064;28;20492;-79
2022/01/31 00:13:04;;;;;;;168.63;92.80;;;;;;;;;;4953059;28;20447;-79
2022/01/31 00:15:30;;;;;;;178.87;98.37;;;;;;;;;;4954727;28;20426;-79
2022/01/31 00:17:56;;;;;;;180.50;101.40;;;;;;;;;;4956715;28;20434;-79
2022/01/31 00:20:23;;;;;;;170.07;92.77;;;;;;;;;;4953456;28;20433;-79
2022/01/31 00:22:49;;;;;;;174.93;94.67;;;;;;;;;;4952873;28;21233;-79
2022/01/31 00:25:15;;;;;;;184.07;99.13;;;;;;;;;;4955908;28;20517;-79
2022/01/31 00:27:41;;;;;;;167.97;93.47;;;;;;;;;;4947704;28;20431;-79
2022/01/31 00:30:07;;;;;;;170.37;92.40;;;;;;;;;;4943637;28;20481;-79
2022/01/31 00:32:35;;;;;;;158.37;91.00;;;;;;;;;;4955864;28;20430;-79
2022/01/31 00:35:01;;;;;;;165.43;92.83;;;;;;;;;;4954623;28;20437;-79
2022/01/31 00:37:27;;;;;;;180.20;91.40;;;;;;;;;;4954168;28;20462;-79
2022/01/31 00:39:53;;;;;;;174.93;95.73;;;;;;;;;;4953692;28;21508;-79
2022/01/31 00:42:19;;;;;;;165.87;91.87;;;;;;;;;;4952051;28;21476;-79
2022/01/31 00:47:19;;;;;;;166.53;90.10;;;;;;;;;;4954839;28;21314;-79
2022/01/31 00:49:50;;;;;;;159.33;87.57;;;;;;;;;;4957056;28;21160;-79
2022/01/31 00:52:17;;;;;;;173.97;94.63;;;;;;;;;;4954251;28;20415;-79
2022/01/31 00:54:43;;;;;;;176.90;96.80;;;;;;;;;;4953447;28;20792;-79
2022/01/31 00:57:09;;;;;;;168.53;94.53;;;;;;;;;;4954918;28;20458;-79
2022/01/31 00:59:35;;;;;;;161.30;91.30;;;;;;;;;;4957386;28;20492;-79
2022/01/31 01:02:01;;;;;;;171.23;93.23;;;;;;;;;;4952615;28;20477;-79
2022/01/31 01:04:27;;;;;;;211.50;106.40;;;;;;;;;;4950203;28;20418;-79
2022/01/31 01:06:53;;;;;;;169.53;94.33;;;;;;;;;;4954313;28;20423;-79
2022/01/31 01:09:19;;;;;;;186.43;98.43;;;;;;;;;;4953581;28;20445;-79
2022/01/31 01:11:45;;;;;;;184.33;97.20;;;;;;;;;;4956606;28;20430;-79
2022/01/31 01:14:12;;;;;;;172.60;93.50;;;;;;;;;;4951986;28;20426;-79
2022/01/31 01:16:38;;;;;;;200.63;103.23;;;;;;;;;;4966394;28;20525;-79
2022/01/31 01:19:04;;;;;;;177.57;98.00;;;;;;;;;;4955667;28;20496;-79
2022/01/31 01:21:31;;;;;;;193.67;98.93;;;;;;;;;;4970793;28;20449;-79
2022/01/31 01:23:57;;;;;;;162.20;89.63;;;;;;;;;;4956531;28;20422;-79
2022/01/31 01:26:23;;;;;;;163.23;92.00;;;;;;;;;;4943782;28;20455;-79
2022/01/31 01:28:49;;;;;;;170.10;92.23;;;;;;;;;;4953997;28;20554;-78
2022/01/31 01:31:15;;;;;;;159.87;90.87;;;;;;;;;;4956379;28;20429;-79
2022/01/31 01:33:42;;;;;;;172.03;93.70;;;;;;;;;;4960413;28;20536;-79
2022/01/31 01:36:08;;;;;;;168.23;89.10;;;;;;;;;;4954880;28;20577;-79
2022/01/31 01:38:35;;;;;;;178.27;94.20;;;;;;;;;;4954876;28;20504;-79
2022/01/31 01:41:01;;;;;;;165.10;90.40;;;;;;;;;;4955104;28;21177;-79
2022/01/31 01:43:30;;;;;;;167.83;91.63;;;;;;;;;;4950474;28;20426;-79
2022/01/31 01:45:57;;;;;;;155.83;86.77;;;;;;;;;;4957026;28;20526;-79
2022/01/31 01:48:26;;;;;;;161.57;89.17;;;;;;;;;;4956775;28;21420;-79
2022/01/31 01:50:52;;;;;;;171.67;90.77;;;;;;;;;;4950892;28;20436;-79
2022/01/31 01:53:19;;;;;;;183.27;98.77;;;;;;;;;;4957787;28;20426;-79
2022/01/31 01:55:46;;;;;;;207.43;108.13;;;;;;;;;;4956968;28;20882;-79
2022/01/31 01:58:16;;;;;;;185.93;102.20;;;;;;;;;;4956575;28;20582;-79
2022/01/31 02:00:50;;;;;;;203.43;103.00;;;;;;;;;;4957044;28;20458;-79
2022/01/31 02:03:18;;;;;;;182.80;94.80;;;;;;;;;;4959681;28;20460;-79
2022/01/31 02:05:44;;;;;;;171.67;93.33;;;;;;;;;;4956075;28;20555;-79
2022/01/31 02:08:12;;;;;;;162.03;88.93;;;;;;;;;;4956262;28;20425;-79
2022/01/31 02:10:39;;;;;;;181.77;95.97;;;;;;;;;;4957008;28;20435;-79
2022/01/31 02:13:06;;;;;;;160.97;84.90;;;;;;;;;;4956239;28;20422;-79
2022/01/31 02:15:32;;;;;;;187.80;100.37;;;;;;;;;;4956969;28;20438;-79
2022/01/31 02:17:58;;;;;;;174.37;91.90;;;;;;;;;;4952215;28;20540;-79
2022/01/31 02:20:24;;;;;;;174.33;93.93;;;;;;;;;;4973637;28;20446;-79
2022/01/31 02:22:50;;;;;;;158.57;87.40;;;;;;;;;;4956270;28;20832;-79
2022/01/31 02:25:16;;;;;;;179.87;93.77;;;;;;;;;;4970019;28;20443;-79
2022/01/31 02:27:43;;;;;;;164.73;87.87;;;;;;;;;;4955391;28;20437;-79
2022/01/31 02:30:10;;;;;;;167.57;90.83;;;;;;;;;;4954266;28;20449;-79
2022/01/31 02:32:36;;;;;;;156.37;84.53;;;;;;;;;;4973693;28;20512;-79
2022/01/31 02:35:04;;;;;;;172.70;91.57;;;;;;;;;;4950703;28;20434;-79
2022/01/31 02:37:31;;;;;;;158.23;85.73;;;;;;;;;;4956197;28;20485;-79
2022/01/31 02:39:57;;;;;;;165.43;89.00;;;;;;;;;;4971445;28;20418;-79
2022/01/31 02:42:23;;;;;;;182.43;94.57;;;;;;;;;;4958707;28;20628;-79
2022/01/31 02:44:50;;;;;;;166.17;88.90;;;;;;;;;;4956723;28;20422;-79
2022/01/31 02:47:24;;;;;;;162.60;85.90;;;;;;;;;;4954428;28;20422;-79
2022/01/31 02:49:56;;;;;;;156.33;85.97;;;;;;;;;;4956723;28;20541;-79
2022/01/31 02:52:24;;;;;;;148.03;82.10;;;;;;;;;;4973083;28;20433;-79
2022/01/31 02:54:50;;;;;;;152.80;84.30;;;;;;;;;;4957381;28;20490;-79
2022/01/31 02:57:16;;;;;;;152.00;81.83;;;;;;;;;;4955512;28;20458;-79
2022/01/31 02:59:42;;;;;;;158.33;85.77;;;;;;;;;;4954656;28;20537;-79
2022/01/31 03:02:08;;;;;;;138.27;74.27;;;;;;;;;;4955421;28;20457;-79
2022/01/31 03:04:34;;;;;;;153.03;78.50;;;;;;;;;;4959043;28;21001;-79
2022/01/31 03:07:00;;;;;;;133.33;74.63;;;;;;;;;;4957753;28;20433;-79
2022/01/31 03:09:26;;;;;;;149.23;80.70;;;;;;;;;;4950744;28;20454;-79
2022/01/31 03:11:53;;;;;;;129.87;72.60;;;;;;;;;;4958813;28;20437;-78
2022/01/31 03:14:19;;;;;;;152.37;82.70;;;;;;;;;;4957116;28;20525;-79
2022/01/31 03:16:49;;;;;;;140.17;77.10;;;;;;;;;;4951538;28;20481;-79
2022/01/31 03:19:16;;;;;;;138.23;77.03;;;;;;;;;;4955120;28;20436;-79
2022/01/31 03:21:42;;;;;;;144.30;80.90;;;;;;;;;;4952035;28;20445;-79
2022/01/31 03:24:09;;;;;;;138.73;73.73;;;;;;;;;;4955876;28;20422;-79
2022/01/31 03:26:35;;;;;;;144.57;77.80;;;;;;;;;;4953383;28;20602;-79
2022/01/31 03:29:01;;;;;;;140.03;74.93;;;;;;;;;;4955497;28;20442;-79
2022/01/31 03:31:27;;;;;;;135.07;74.77;;;;;;;;;;4955701;28;20473;-78
2022/01/31 03:33:54;;;;;;;145.93;79.10;;;;;;;;;;4954957;28;20430;-79
2022/01/31 03:36:21;;;;;;;152.17;82.43;;;;;;;;;;4953746;28;20446;-78
2022/01/31 03:38:47;;;;;;;184.03;95.03;;;;;;;;;;4958062;28;20509;-79
2022/01/31 03:41:14;;;;;;;190.87;100.33;;;;;;;;;;4955982;28;20541;-79
2022/01/31 03:43:40;;;;;;;159.57;87.20;;;;;;;;;;4954194;28;20461;-79
2022/01/31 03:46:06;;;;;;;159.83;88.60;;;;;;;;;;4956855;28;20442;-79
2022/01/31 03:48:33;;;;;;;167.17;88.33;;;;;;;;;;4956217;28;21162;-79
2022/01/31 03:51:00;;;;;;;164.63;92.83;;;;;;;;;;4957447;28;20485;-79
2022/01/31 03:53:26;;;;;;;149.87;80.50;;;;;;;;;;4967324;28;20421;-79
2022/01/31 03:55:52;;;;;;;149.43;82.67;;;;;;;;;;4951121;28;20509;-79
2022/01/31 03:58:18;;;;;;;153.17;83.57;;;;;;;;;;4950726;28;20441;-79
2022/01/31 04:00:45;;;;;;;142.50;76.93;;;;;;;;;;4955898;28;20428;-79
2022/01/31 04:03:11;;;;;;;138.00;75.33;;;;;;;;;;4948310;28;20419;-79
2022/01/31 04:05:37;;;;;;;145.23;78.60;;;;;;;;;;4954360;28;20422;-79
2022/01/31 04:08:04;;;;;;;128.07;71.33;;;;;;;;;;4952795;28;20466;-79
2022/01/31 04:10:30;;;;;;;126.07;70.10;;;;;;;;;;4954656;28;20465;-79
2022/01/31 04:12:57;;;;;;;129.63;71.87;;;;;;;;;;4956028;28;20430;-79
2022/01/31 04:15:23;;;;;;;133.37;75.47;;;;;;;;;;4954626;28;20422;-78
2022/01/31 04:17:49;;;;;;;141.70;77.90;;;;;;;;;;4953889;28;20454;-79
2022/01/31 04:20:16;;;;;;;126.53;72.73;;;;;;;;;;4951807;28;20461;-79
2022/01/31 04:22:50;;;;;;;126.70;70.00;;;;;;;;;;4955602;28;20540;-79
2022/01/31 04:25:43;;;;;;;126.10;71.93;;;;;;;;;;4954703;28;20421;-79
2022/01/31 04:31:09;;;;;;;130.47;71.73;;;;;;;;;;4956103;28;20425;-79
2022/01/31 04:33:35;;;;;;;121.80;70.20;;;;;;;;;;4956661;28;20488;-79
2022/01/31 04:36:01;;;;;;;124.53;69.97;;;;;;;;;;4956982;28;21337;-79
2022/01/31 04:38:28;;;;;;;115.63;68.77;;;;;;;;;;4947998;28;21301;-79
2022/01/31 04:40:54;;;;;;;115.93;65.47;;;;;;;;;;4966638;28;22381;-79
2022/01/31 04:43:20;;;;;;;111.43;67.73;;;;;;;;;;4953945;28;20426;-79
2022/01/31 04:45:47;;;;;;;137.90;78.43;;;;;;;;;;4957039;28;20430;-79
2022/01/31 04:48:18;;;;;;;121.60;71.77;;;;;;;;;;4954721;28;20537;-79
2022/01/31 04:50:44;;;;;;;129.87;76.70;;;;;;;;;;4969881;28;20453;-79
2022/01/31 04:53:11;;;;;;;147.73;83.13;;;;;;;;;;4954345;28;20477;-79
2022/01/31 04:55:37;;;;;;;161.40;92.47;;;;;;;;;;4951803;28;20425;-79
2022/01/31 04:58:04;;;;;;;149.73;83.87;;;;;;;;;;4953418;28;20497;-79
2022/01/31 05:00:31;;;;;;;135.03;77.43;;;;;;;;;;4954578;28;20556;-79
2022/01/31 05:02:57;;;;;;;131.30;77.07;;;;;;;;;;4954220;28;20430;-79
2022/01/31 05:05:23;;;;;;;142.77;76.97;;;;;;;;;;4955907;28;20406;-79
2022/01/31 05:07:52;;;;;;;156.20;84.53;;;;;;;;;;4954767;28;20426;-79
2022/01/31 05:10:18;;;;;;;133.93;72.67;;;;;;;;;;4953073;28;20445;-79
2022/01/31 05:12:44;;;;;;;145.90;79.47;;;;;;;;;;4954831;28;21228;-79
2022/01/31 05:15:11;;;;;;;162.70;84.10;;;;;;;;;;4953694;28;20430;-79
2022/01/31 05:17:37;;;;;;;161.10;85.57;;;;;;;;;;4950538;28;20457;-79
2022/01/31 05:20:03;;;;;;;141.87;75.53;;;;;;;;;;4969985;28;21175;-79
2022/01/31 05:22:29;;;;;;;167.87;86.70;;;;;;;;;;4955582;28;20558;-79
2022/01/31 05:24:56;;;;;;;155.17;82.70;;;;;;;;;;4956123;28;21082;-79
2022/01/31 05:27:22;;;;;;;144.33;75.43;;;;;;;;;;4955037;28;20440;-79
2022/01/31 05:29:48;;;;;;;149.33;78.67;;;;;;;;;;4953961;28;20489;-79
2022/01/31 05:32:14;;;;;;;155.73;81.40;;;;;;;;;;4956548;28;20434;-79
2022/01/31 05:34:40;;;;;;;157.03;84.93;;;;;;;;;;4957901;28;20429;-79
2022/01/31 05:37:06;;;;;;;141.90;76.00;;;;;;;;;;4955682;28;21185;-79
2022/01/31 05:39:32;;;;;;;170.60;86.33;;;;;;;;;;4953927;28;20503;-79
2022/01/31 05:41:59;;;;;;;144.90;79.20;;;;;;;;;;4955075;28;20410;-79
2022/01/31 05:44:26;;;;;;;152.67;80.23;;;;;;;;;;4956757;28;20453;-79
2022/01/31 05:46:52;;;;;;;153.90;82.83;;;;;;;;;;4949402;28;20432;-79
2022/01/31 05:49:18;;;;;;;139.43;77.50;;;;;;;;;;4953070;28;20445;-79
2022/01/31 05:51:57;;;;;;;131.87;75.47;;;;;;;;;;4956343;28;20469;-79
2022/01/31 05:54:24;;;;;;;143.17;78.00;;;;;;;;;;4951510;28;20441;-79
2022/01/31 05:56:50;;;;;;;161.47;85.47;;;;;;;;;;4952481;28;20691;-79
2022/01/31 05:59:17;;;;;;;140.63;78.83;;;;;;;;;;4954966;28;21033;-79
2022/01/31 06:01:43;;;;;;;151.10;81.70;;;;;;;;;;4955931;28;21625;-80
2022/01/31 06:04:10;;;;;;;139.97;79.00;;;;;;;;;;4957412;28;20421;-80
2022/01/31 06:06:36;;;;;;;156.43;80.80;;;;;;;;;;4970075;28;20430;-80
2022/01/31 06:09:03;;;;;;;144.33;76.77;;;;;;;;;;4954233;28;20429;-80
2022/01/31 06:11:31;;;;;;;141.27;79.30;;;;;;;;;;4952285;28;21185;-80
2022/01/31 06:14:00;;;;;;;133.27;76.03;;;;;;;;;;4955714;28;21252;-80
2022/01/31 06:16:26;;;;;;;159.10;82.37;;;;;;;;;;4954393;28;20998;-80
2022/01/31 06:18:53;;;;;;;147.83;82.07;;;;;;;;;;4950523;28;21265;-79
2022/01/31 06:21:19;;;;;;;147.93;78.53;;;;;;;;;;4952586;28;20442;-79
2022/01/31 06:23:45;;;;;;;136.97;74.57;;;;;;;;;;4951789;28;20431;-80
2022/01/31 06:26:12;;;;;;;156.77;84.10;;;;;;;;;;4952066;28;20426;-80
2022/01/31 06:28:38;;;;;;;165.50;85.73;;;;;;;;;;4949167;28;20470;-80
2022/01/31 06:31:04;;;;;;;147.63;80.77;;;;;;;;;;4953045;28;20434;-80
2022/01/31 06:33:30;;;;;;;163.57;86.87;;;;;;;;;;4955195;28;20434;-80
2022/01/31 06:35:56;;;;;;;152.10;82.60;;;;;;;;;;4956182;28;21084;-80
2022/01/31 06:38:23;;;;;;;133.03;72.47;;;;;;;;;;4955919;28;20433;-80
2022/01/31 06:40:49;;;;;;;153.20;80.10;;;;;;;;;;4955772;28;20904;-80
2022/01/31 06:43:15;;;;;;;166.57;86.20;;;;;;;;;;4958303;28;20529;-80
2022/01/31 06:45:41;;;;;;;162.13;82.93;;;;;;;;;;4973522;28;20437;-80
2022/01/31 06:48:07;;;;;;;144.67;77.13;;;;;;;;;;4955960;28;20428;-80
2022/01/31 06:50:34;;;;;;;163.13;85.03;;;;;;;;;;4953520;28;20437;-79
2022/01/31 06:53:02;;;;;;;154.53;79.40;;;;;;;;;;4955988;28;20572;-79
2022/01/31 06:55:29;;;;;;;155.20;80.63;;;;;;;;;;4973981;28;21090;-80
2022/01/31 06:57:56;;;;;;;157.33;83.70;;;;;;;;;;4956642;28;20465;-80
2022/01/31 07:00:22;;;;;;;162.03;80.87;;;;;;;;;;4957209;28;20442;-80
2022/01/31 07:02:49;;;;;;;155.90;80.50;;;;;;;;;;4955131;28;20500;-80
2022/01/31 07:05:16;;;;;;;167.60;84.53;;;;;;;;;;4957211;28;20425;-80
2022/01/31 07:07:42;;;;;;;144.40;76.93;;;;;;;;;;4957995;28;20414;-80
2022/01/31 07:10:09;;;;;;;156.67;77.77;;;;;;;;;;4956032;28;20459;-80
2022/01/31 07:12:40;;;;;;;164.57;81.10;;;;;;;;;;4971178;28;20437;-80
2022/01/31 07:15:07;;;;;;;150.70;76.27;;;;;;;;;;4953299;28;20528;-80
2022/01/31 07:17:35;;;;;;;163.37;77.63;;;;;;;;;;4955821;28;20540;-80
2022/01/31 07:20:03;;;;;;;167.80;82.40;;;;;;;;;;4956902;28;20414;-80
2022/01/31 07:22:34;;;;;;;165.10;79.43;;;;;;;;;;4953079;28;20522;-80
2022/01/31 07:25:07;;;;;;;221.27;96.90;;;;;;;;;;4956218;28;20889;-80
2022/01/31 07:27:33;;;;;;;195.83;89.70;;;;;;;;;;4956475;28;20517;-80
2022/01/31 07:29:59;;;;;;;182.13;88.00;;;;;;;;;;4954875;28;20438;-80
2022/01/31 07:32:26;;;;;;;175.90;84.67;;;;;;;;;;4956444;28;21153;-81
2022/01/31 07:34:55;;;;;;;164.03;80.43;;;;;;;;;;4971184;28;20593;-81
2022/01/31 07:37:22;;;;;;;154.40;82.57;;;;;;;;;;4957059;28;21260;-81
2022/01/31 07:39:49;;;;;;;158.30;81.00;;;;;;;;;;4953806;28;21231;-80
2022/01/31 07:42:15;;;;;;;159.33;82.93;;;;;;;;;;4959440;28;20425;-80
2022/01/31 07:44:41;;;;;;;143.37;76.53;;;;;;;;;;4952144;28;20432;-81
2022/01/31 07:47:07;;;;;;;139.10;74.33;;;;;;;;;;4954903;28;20458;-80
2022/01/31 07:49:34;;;;;;;134.30;74.57;;;;;;;;;;4957130;28;21376;-80
2022/01/31 07:52:13;;;;;;;158.50;83.20;;;;;;;;;;4962098;28;20430;-80
2022/01/31 07:54:50;;;;;;;151.77;81.57;;;;;;;;;;4956601;28;20444;-81
2022/01/31 07:57:18;;;;;;;130.40;77.07;;;;;;;;;;4956676;28;20491;-81
2022/01/31 07:59:44;;;;;;;137.33;78.30;;;;;;;;;;4953530;28;20564;-81
2022/01/31 08:02:10;;;;;;;154.00;81.77;;;;;;;;;;4956700;28;20422;-81
2022/01/31 08:04:37;;;;;;;140.50;76.67;;;;;;;;;;4952608;28;20422;-81
2022/01/31 08:07:03;;;;;;;147.97;77.80;;;;;;;;;;4954738;28;20426;-81
2022/01/31 08:09:29;;;;;;;166.60;85.67;;;;;;;;;;4949294;28;21228;-81
2022/01/31 08:11:55;;;;;;;153.57;82.10;;;;;;;;;;4958991;28;20430;-80
2022/01/31 08:14:21;;;;;;;161.67;84.43;;;;;;;;;;4954601;28;20449;-80
2022/01/31 08:16:47;;;;;;;156.73;83.47;;;;;;;;;;4948281;28;20498;-80
2022/01/31 08:19:13;;;;;;;164.40;85.37;;;;;;;;;;4954322;28;21084;-80
2022/01/31 08:21:39;;;;;;;149.87;78.03;;;;;;;;;;4950884;28;20452;-80
2022/01/31 08:24:06;;;;;;;158.33;81.90;;;;;;;;;;4955680;28;20422;-80
2022/01/31 08:26:32;;;;;;;180.87;89.83;;;;;;;;;;4953784;28;20536;-80
2022/01/31 08:29:03;;;;;;;198.37;95.17;;;;;;;;;;4953592;28;20604;-80
2022/01/31 08:31:33;;;;;;;201.07;96.53;;;;;;;;;;4948629;28;20426;-80
2022/01/31 08:36:27;;;;;;;195.10;94.80;;;;;;;;;;4956479;28;20462;-80
2022/01/31 08:38:54;;;;;;;214.60;96.07;;;;;;;;;;4957508;28;20418;-80
2022/01/31 08:41:20;;;;;;;186.07;88.47;;;;;;;;;;4953877;28;20811;-80
2022/01/31 08:43:52;;;;;;;243.40;106.77;;;;;;;;;;4952573;28;20430;-80
2022/01/31 08:46:19;;;;;;;226.10;104.50;;;;;;;;;;4964097;28;20468;-81
2022/01/31 08:48:45;;;;;;;205.23;100.37;;;;;;;;;;4953050;28;21060;-81
2022/01/31 08:51:12;;;;;;;177.40;89.17;;;;;;;;;;4954307;28;20434;-79
2022/01/31 08:53:42;;;;;;;170.17;85.70;;;;;;;;;;4951562;28;21373;-80
2022/01/31 08:56:09;;;;;;;223.27;105.60;;;;;;;;;;4949117;28;20526;-81
2022/01/31 08:58:44;;;;;;;190.67;93.93;;;;;;;;;;4950708;28;20624;-81
2022/01/31 09:01:12;;;;;;;190.83;91.07;;;;;;;;;;4949597;28;20458;-81
2022/01/31 09:06:05;;;;;;;174.73;86.13;;;;;;;;;;4950812;28;20433;-80
2022/01/31 09:08:31;;;;;;;173.83;87.37;;;;;;;;;;4965170;28;20434;-81
2022/01/31 09:10:58;;;;;;;168.03;84.10;;;;;;;;;;4950621;28;20426;-81
2022/01/31 09:13:24;;;;;;;202.37;99.27;;;;;;;;;;4952876;28;20453;-80
2022/01/31 09:15:51;;;;;;;182.00;93.43;;;;;;;;;;4951011;28;20492;-81
2022/01/31 09:18:17;;;;;;;184.50;88.63;;;;;;;;;;4950581;28;20471;-81
2022/01/31 09:20:43;;;;;;;185.47;91.63;;;;;;;;;;4951749;28;20557;-80
2022/01/31 09:23:09;;;;;;;190.13;93.43;;;;;;;;;;4951616;28;20422;-80
2022/01/31 09:25:36;;;;;;;172.37;85.77;;;;;;;;;;4968449;28;20437;-80
2022/01/31 09:28:03;;;;;;;170.13;87.37;;;;;;;;;;4954866;28;20524;-81
2022/01/31 09:30:30;;;;;;;159.27;82.03;;;;;;;;;;4953587;28;20421;-81
2022/01/31 09:32:57;;;;;;;164.70;80.57;;;;;;;;;;4952672;28;21260;-80
2022/01/31 09:35:24;;;;;;;169.20;84.77;;;;;;;;;;4953667;28;20414;-80
2022/01/31 09:37:50;;;;;;;166.67;83.30;;;;;;;;;;4955083;28;20528;-80
2022/01/31 09:40:20;;;;;;;167.77;83.83;;;;;;;;;;4952828;28;20430;-81
2022/01/31 09:43:03;;;;;;;164.93;84.87;;;;;;;;;;4952045;28;20418;-81
2022/01/31 09:45:52;;;;;;;176.77;89.17;;;;;;;;;;4952844;28;20412;-81
2022/01/31 09:50:58;;;;;;;162.10;84.87;;;;;;;;;;4951973;28;20433;-81
2022/01/31 09:53:25;;;;;;;162.20;85.13;;;;;;;;;;4951586;28;20456;-80
2022/01/31 09:55:54;;;;;;;177.53;91.70;;;;;;;;;;4952091;28;20481;-80
2022/01/31 09:58:20;;;;;;;183.33;91.50;;;;;;;;;;4956787;28;21723;-80
2022/01/31 10:00:46;;;;;;;166.20;87.63;;;;;;;;;;4950773;28;21177;-80
2022/01/31 10:03:13;;;;;;;159.00;85.43;;;;;;;;;;4952542;28;20422;-80
2022/01/31 10:05:40;;;;;;;156.57;82.60;;;;;;;;;;4952756;28;20477;-80
2022/01/31 10:08:13;;;;;;;151.77;81.53;;;;;;;;;;4955898;28;20513;-80
2022/01/31 10:10:41;;;;;;;150.80;79.90;;;;;;;;;;4957714;28;20561;-80
2022/01/31 10:16:28;;;;;;;160.10;85.03;;;;;;;;;;4918106;29;20615;-80
2022/01/31 10:19:09;;;;;;;147.47;78.63;;;;;;;;;;4954248;28;20434;-80
2022/01/31 10:21:53;;;;;;;157.23;87.67;;;;;;;;;;4958223;28;20426;-80
2022/01/31 10:24:19;;;;;;;151.87;83.23;;;;;;;;;;4956334;28;20512;-79
2022/01/31 10:26:46;;;;;;;154.67;84.97;;;;;;;;;;4954727;28;20456;-79
2022/01/31 10:29:13;;;;;;;161.27;89.60;;;;;;;;;;4957912;28;20450;-79
2022/01/31 10:31:53;;;;;;;166.37;90.70;;;;;;;;;;4956849;28;21255;-78
2022/01/31 10:34:21;;;;;;;162.50;88.63;;;;;;;;;;4973474;28;21077;-78
2022/01/31 10:36:47;;;;;;;158.47;85.40;;;;;;;;;;4951955;28;20457;-79
2022/01/31 10:43:12;;;;;;;164.33;91.00;;;;;;;;;;4954379;28;20425;-79
2022/01/31 10:51:32;;;;;;;155.80;84.43;;;;;;;;;;4958082;28;20404;-78
2022/01/31 10:54:14;;;;;;;147.00;81.57;;;;;;;;;;4956311;28;21258;-78
2022/01/31 10:56:45;;;;;;;164.47;88.37;;;;;;;;;;4972952;28;21630;-78
2022/01/31 10:59:14;;;;;;;170.30;91.40;;;;;;;;;;4952676;28;20455;-78
2022/01/31 11:01:41;;;;;;;152.30;82.93;;;;;;;;;;4956814;28;20444;-78
2022/01/31 11:04:10;;;;;;;165.07;91.40;;;;;;;;;;4955403;28;21117;-78
2022/01/31 11:06:39;;;;;;;181.33;96.50;;;;;;;;;;4953934;28;20438;-78
2022/01/31 11:09:09;;;;;;;185.03;96.97;;;;;;;;;;4949712;28;20460;-78
2022/01/31 11:11:37;;;;;;;182.30;95.87;;;;;;;;;;4956918;28;21142;-78
2022/01/31 11:14:04;;;;;;;180.90;96.60;;;;;;;;;;4952942;28;20422;-78
2022/01/31 11:16:30;;;;;;;176.43;94.10;;;;;;;;;;4955758;28;20537;-77
2022/01/31 11:18:58;;;;;;;183.03;95.90;;;;;;;;;;4953669;28;20419;-78
2022/01/31 11:21:28;;;;;;;168.97;92.23;;;;;;;;;;4955950;28;20532;-77
2022/01/31 11:24:01;;;;;;;185.63;96.77;;;;;;;;;;4955664;28;20421;-79
2022/01/31 11:26:28;;;;;;;192.03;99.40;;;;;;;;;;4954298;28;21078;-78
2022/01/31 11:28:55;;;;;;;170.03;94.67;;;;;;;;;;4956329;28;20516;-77
2022/01/31 11:31:23;;;;;;;172.63;94.47;;;;;;;;;;4950516;28;21136;-78
2022/01/31 11:33:49;;;;;;;166.80;92.97;;;;;;;;;;4954086;28;20516;-77
2022/01/31 11:36:15;;;;;;;159.03;87.57;;;;;;;;;;4956023;28;21171;-78
2022/01/31 11:38:41;;;;;;;153.27;86.97;;;;;;;;;;4953938;28;20434;-79
2022/01/31 11:41:08;;;;;;;156.40;89.17;;;;;;;;;;4970296;28;20458;-78
2022/01/31 11:43:35;;;;;;;158.70;88.03;;;;;;;;;;4957302;28;20415;-79
2022/01/31 11:46:02;;;;;;;157.40;87.63;;;;;;;;;;4955718;28;20480;-78
2022/01/31 11:48:30;;;;;;;161.83;89.47;;;;;;;;;;4954411;28;20420;-78
2022/01/31 11:50:58;;;;;;;154.27;87.20;;;;;;;;;;4952650;28;20438;-79
2022/01/31 11:53:34;;;;;;;161.70;90.83;;;;;;;;;;4956454;28;20437;-78
2022/01/31 11:56:08;;;;;;;154.70;85.90;;;;;;;;;;4954314;28;20443;-80
2022/01/31 11:58:45;;;;;;;170.70;92.97;;;;;;;;;;4955099;28;20430;-80
2022/01/31 12:01:11;;;;;;;160.03;90.67;;;;;;;;;;4968956;28;20424;-80
2022/01/31 12:03:49;;;;;;;157.50;89.57;;;;;;;;;;4954960;28;20445;-80
2022/01/31 12:06:20;;;;;;;149.40;87.43;;;;;;;;;;4957798;28;20736;-80
2022/01/31 12:08:47;;;;;;;142.30;86.07;;;;;;;;;;4970437;28;20422;-80
2022/01/31 12:11:23;;;;;;;153.20;89.20;;;;;;;;;;4954835;28;20418;-80
2022/01/31 12:13:53;;;;;;;160.30;92.03;;;;;;;;;;4958377;28;21032;-80
2022/01/31 12:16:43;;;;;;;157.57;92.27;;;;;;;;;;4955827;28;20426;-80
2022/01/31 12:22:05;;;;;;;138.43;80.63;;;;;;;;;;4954982;28;20461;-80
2022/01/31 12:24:44;;;;;;;130.10;78.20;;;;;;;;;;4956010;28;21252;-80
2022/01/31 12:27:10;;;;;;;130.27;77.63;;;;;;;;;;4950640;28;20429;-80
2022/01/31 12:29:47;;;;;;;122.57;72.17;;;;;;;;;;4952273;28;20528;-80
2022/01/31 12:32:17;;;;;;;121.57;67.70;;;;;;;;;;4955834;28;20910;-81
2022/01/31 12:34:48;;;;;;;108.77;64.17;;;;;;;;;;4959909;28;20425;-81
2022/01/31 12:37:20;;;;;;;112.83;62.07;;;;;;;;;;4956373;28;20448;-80
2022/01/31 12:40:01;;;;;;;91.37;55.07;;;;;;;;;;4953969;28;20425;-81
2022/01/31 12:43:25;;;;;;;109.47;61.93;;;;;;;;;;4946833;28;20544;-80
2022/01/31 12:45:30;;;;;;;117.80;68.37;;;;;;;;;;4958850;28;20442;-82
2022/01/31 12:48:16;;;;;;;131.30;76.70;;;;;;;;;;4955368;28;20457;-81
2022/01/31 12:50:51;;;;;;;125.77;73.33;;;;;;;;;;4950462;28;20429;-80
2022/01/31 12:53:28;;;;;;;107.37;59.27;;;;;;;;;;4954387;28;20418;-82
2022/01/31 12:56:10;;;;;;;93.03;56.63;;;;;;;;;;4956021;28;20414;-81
2022/01/31 12:58:47;;;;;;;104.23;58.87;;;;;;;;;;4958240;28;20434;-83
2022/01/31 13:01:24;;;;;;;108.60;61.37;;;;;;;;;;4956286;28;20438;-80
2022/01/31 13:03:52;;;;;;;104.70;61.47;;;;;;;;;;4953912;28;20430;-82
2022/01/31 13:06:34;;;;;;;99.70;56.97;;;;;;;;;;4953899;28;20434;-81
2022/01/31 13:09:21;;;;;;;102.00;57.40;;;;;;;;;;4956388;28;20494;-81
2022/01/31 13:11:49;;;;;;;102.70;57.77;;;;;;;;;;4954453;28;20418;-80
2022/01/31 13:14:24;;;;;;;97.00;57.60;;;;;;;;;;4954973;28;20892;-81
2022/01/31 13:16:58;;;;;;;97.47;56.40;;;;;;;;;;4950922;28;20276;-80
2022/01/31 13:19:25;;;;;;;89.97;54.53;;;;;;;;;;4955048;28;20907;-80
2022/01/31 13:21:52;;;;;;;94.20;55.87;;;;;;;;;;4954542;28;20613;-81
2022/01/31 13:24:19;;;;;;;94.80;54.47;;;;;;;;;;4953080;28;20179;-81
2022/01/31 13:26:49;;;;;;;104.97;58.80;;;;;;;;;;4952001;28;20442;-80
2022/01/31 13:29:36;;;;;;;106.20;59.33;;;;;;;;;;4951120;28;20294;-86
2022/01/31 13:32:23;;;;;;;115.07;62.37;;;;;;;;;;4970175;28;20229;-86
2022/01/31 13:35:16;;;;;;;111.30;64.43;;;;;;;;;;4956264;28;21101;-84
2022/01/31 13:37:46;;;;;;;114.70;62.10;;;;;;;;;;4950241;28;20450;-84
2022/01/31 13:40:21;;;;;;;104.17;56.13;;;;;;;;;;4957963;28;20306;-84
2022/01/31 13:42:58;;;;;;;93.47;50.87;;;;;;;;;;4953972;28;20184;-84
2022/01/31 13:45:30;;;;;;;85.03;48.17;;;;;;;;;;4957189;28;20422;-83
2022/01/31 13:48:02;;;;;;;71.87;41.37;;;;;;;;;;4957129;28;20198;-83
2022/01/31 13:50:33;;;;;;;75.20;40.03;;;;;;;;;;4955786;28;21421;-84
2022/01/31 13:53:09;;;;;;;70.47;40.43;;;;;;;;;;4955687;28;20552;-84
2022/01/31 13:56:05;;;;;;;67.87;37.07;;;;;;;;;;4951882;28;20421;-85
2022/01/31 13:58:32;;;;;;;64.53;35.07;;;;;;;;;;4955718;28;20567;-85
2022/01/31 14:01:01;;;;;;;67.07;36.63;;;;;;;;;;4956515;28;21331;-85
2022/01/31 14:03:31;;;;;;;66.67;36.13;;;;;;;;;;4956742;28;20428;-85
2022/01/31 14:06:01;;;;;;;71.17;37.23;;;;;;;;;;4971056;28;20435;-85
2022/01/31 14:08:35;;;;;;;69.10;36.60;;;;;;;;;;4968399;28;20429;-84
2022/01/31 14:11:08;;;;;;;71.73;39.33;;;;;;;;;;4958293;28;20418;-84
2022/01/31 14:13:35;;;;;;;71.90;39.57;;;;;;;;;;4968798;28;21076;-85
2022/01/31 14:16:01;;;;;;;70.00;37.83;;;;;;;;;;4956511;28;20422;-84
2022/01/31 14:18:30;;;;;;;71.00;37.97;;;;;;;;;;4953288;28;20457;-84
2022/01/31 14:20:56;;;;;;;70.60;37.97;;;;;;;;;;4968662;28;21038;-84
2022/01/31 14:23:23;;;;;;;70.00;38.03;;;;;;;;;;4954788;28;20442;-85
2022/01/31 14:25:50;;;;;;;69.40;37.73;;;;;;;;;;4957718;28;21294;-85
2022/01/31 14:28:17;;;;;;;66.13;36.17;;;;;;;;;;4970442;28;21322;-85
2022/01/31 14:30:51;;;;;;;69.90;38.67;;;;;;;;;;4970474;28;21050;-85
2022/01/31 14:33:24;;;;;;;68.70;38.33;;;;;;;;;;4948830;28;20552;-85
2022/01/31 14:36:04;;;;;;;67.27;36.10;;;;;;;;;;4952774;28;20453;-85
2022/01/31 14:38:36;;;;;;;70.07;38.23;;;;;;;;;;4967056;28;20711;-85
2022/01/31 14:49:03;;;;;;;67.83;38.90;;;;;;;;;;4956824;28;20436;-84
2022/01/31 14:51:35;;;;;;;71.27;38.13;;;;;;;;;;4955621;28;20214;-84